Time;durP1;ratioP1;P1;durP2;ratioP2;P2;SDS_P1;SDS_P2;PMS_P1;PMS_P2;Temp;Humidity;BMP_temperature;BMP_pressure;BME280_temperature;BME280_humidity;BME280_pressure;Samples;Min_cycle;Max_cycle;Signal;HPM_P1;HPM_P2
2022/11/28 00:02:09;;;;;;;25.63;11.90;;;23.60;99.90;;;;;;5013521;28;20096;-57
2022/11/28 00:04:35;;;;;;;21.02;11.18;;;23.60;99.90;;;;;;5014023;28;20025;-60
2022/11/28 00:07:01;;;;;;;26.48;10.93;;;23.60;99.90;;;;;;5029724;28;20069;-59
2022/11/28 00:09:26;;;;;;;23.60;11.35;;;23.60;99.90;;;;;;5014541;28;20088;-60
2022/11/28 00:11:52;;;;;;;20.80;11.30;;;23.60;99.90;;;;;;5013716;28;20121;-57
2022/11/28 00:14:19;;;;;;;25.52;11.73;;;23.50;99.90;;;;;;5013127;28;20022;-58
2022/11/28 00:16:45;;;;;;;24.23;11.50;;;23.50;99.90;;;;;;5013198;28;20080;-58
2022/11/28 00:19:12;;;;;;;23.52;11.63;;;23.60;99.90;;;;;;5013078;28;20022;-57
2022/11/28 00:21:39;;;;;;;22.80;11.05;;;23.60;99.90;;;;;;5014050;28;20470;-59
2022/11/28 00:24:05;;;;;;;20.80;10.65;;;23.50;99.90;;;;;;5029261;28;20044;-57
2022/11/28 00:26:32;;;;;;;21.02;11.52;;;23.50;99.90;;;;;;5013969;28;20026;-58
2022/11/28 00:28:59;;;;;;;23.60;11.30;;;23.50;99.90;;;;;;5014186;28;20030;-59
2022/11/28 00:31:28;;;;;;;20.27;10.20;;;23.50;99.90;;;;;;5013251;28;20050;-62
2022/11/28 00:33:54;;;;;;;21.33;10.43;;;23.50;99.90;;;;;;5013832;28;20026;-60
2022/11/28 00:36:20;;;;;;;19.40;10.40;;;23.50;99.90;;;;;;5012973;28;20029;-58
2022/11/28 00:38:46;;;;;;;18.50;9.50;;;23.50;99.90;;;;;;5013091;28;20029;-59
2022/11/28 00:41:19;;;;;;;17.65;8.95;;;23.50;99.90;;;;;;5012659;28;20111;-60
2022/11/28 00:43:46;;;;;;;18.05;9.10;;;23.50;99.90;;;;;;5012732;28;20041;-60
2022/11/28 00:46:13;;;;;;;17.77;9.00;;;23.50;99.90;;;;;;5013604;28;20026;-58
2022/11/28 00:48:39;;;;;;;18.75;8.75;;;23.50;99.90;;;;;;5013779;28;20084;-58
2022/11/28 00:51:08;;;;;;;18.15;9.13;;;23.50;99.90;;;;;;5013537;28;20108;-59
2022/11/28 00:53:34;;;;;;;16.15;9.18;;;23.50;99.90;;;;;;5012607;28;20021;-59
2022/11/28 00:56:02;;;;;;;17.23;8.98;;;23.40;99.90;;;;;;5013380;28;20542;-61
2022/11/28 00:58:27;;;;;;;;;;;23.40;99.90;;;;;;5013927;28;20026;-60
2022/11/28 01:00:53;;;;;;;18.15;9.38;;;23.40;99.90;;;;;;5059861;23;19975;-58
2022/11/28 01:03:19;;;;;;;20.80;10.00;;;23.40;99.90;;;;;;5053087;28;20108;-57
2022/11/28 01:05:45;;;;;;;16.63;9.20;;;23.40;99.90;;;;;;5053254;28;20027;-58
2022/11/28 01:08:10;;;;;;;16.48;8.75;;;23.40;99.90;;;;;;5052991;28;20057;-57
2022/11/28 01:10:41;;;;;;;16.20;8.43;;;23.40;99.90;;;;;;5052683;28;20092;-54
2022/11/28 01:13:07;;;;;;;15.82;8.32;;;23.40;99.90;;;;;;5068413;28;20025;-53
2022/11/28 01:15:33;;;;;;;15.17;8.73;;;23.40;99.90;;;;;;5052923;28;20024;-53
2022/11/28 01:18:00;;;;;;;18.48;9.45;;;23.30;99.90;;;;;;5052981;28;20466;-55
2022/11/28 01:20:25;;;;;;;18.27;8.73;;;23.30;99.90;;;;;;5052665;28;20021;-55
2022/11/28 01:22:51;;;;;;;14.20;7.75;;;23.30;99.90;;;;;;5053005;28;20393;-55
2022/11/28 01:25:17;;;;;;;19.08;8.50;;;23.30;99.90;;;;;;5052519;28;20017;-55
2022/11/28 01:27:43;;;;;;;17.80;10.13;;;23.30;99.90;;;;;;5051516;28;20472;-53
2022/11/28 01:30:08;;;;;;;13.77;8.50;;;23.30;99.90;;;;;;5052996;28;20037;-55
2022/11/28 01:32:34;;;;;;;15.93;9.00;;;23.30;99.90;;;;;;5052049;28;20024;-58
2022/11/28 01:35:00;;;;;;;15.95;7.57;;;23.30;99.90;;;;;;5051293;28;20023;-55
2022/11/28 01:37:28;;;;;;;14.63;8.43;;;23.30;99.90;;;;;;5066750;28;20024;-55
2022/11/28 01:39:54;;;;;;;15.43;8.85;;;23.30;99.90;;;;;;5051372;28;20492;-53
2022/11/28 01:42:20;;;;;;;17.45;8.95;;;23.30;99.90;;;;;;5051374;28;20021;-56
2022/11/28 01:44:48;;;;;;;14.50;8.30;;;23.30;99.90;;;;;;5051453;28;20028;-57
2022/11/28 01:47:19;;;;;;;12.25;7.28;;;23.30;99.90;;;;;;5051322;28;20013;-53
2022/11/28 01:49:47;;;;;;;11.95;6.93;;;23.30;99.90;;;;;;5051328;28;20025;-54
2022/11/28 01:52:15;;;;;;;13.57;7.60;;;23.30;99.90;;;;;;5051729;28;20024;-56
2022/11/28 01:54:45;;;;;;;15.98;8.18;;;23.30;99.90;;;;;;5052576;28;20093;-54
2022/11/28 01:57:14;;;;;;;15.73;8.98;;;23.30;99.90;;;;;;5043496;28;20029;-51
2022/11/28 01:59:47;;;;;;;17.30;9.00;;;23.30;99.90;;;;;;5055108;22;20510;-46
2022/11/28 02:02:20;;;;;;;17.50;9.32;;;23.30;99.90;;;;;;5007454;28;20533;-47
2022/11/28 02:04:47;;;;;;;16.77;8.38;;;23.30;99.90;;;;;;5005638;28;20438;-48
2022/11/28 02:07:13;;;;;;;14.43;8.70;;;23.20;99.90;;;;;;5022290;28;20033;-48
2022/11/28 02:09:39;;;;;;;17.35;9.20;;;23.20;99.90;;;;;;4992576;28;20478;-48
2022/11/28 02:12:07;;;;;;;13.60;9.05;;;23.20;99.90;;;;;;5006459;28;20108;-47
2022/11/28 02:14:54;;;;;;;13.10;7.53;;;23.20;99.90;;;;;;5010293;28;20037;-47
2022/11/28 02:17:46;;;;;;;12.85;8.55;;;23.20;99.90;;;;;;5010064;28;20504;-49
2022/11/28 02:20:26;;;;;;;14.60;9.10;;;23.20;99.90;;;;;;5009915;28;20128;-49
2022/11/28 02:22:56;;;;;;;13.93;7.95;;;23.20;99.90;;;;;;5008280;28;20022;-49
2022/11/28 02:25:40;;;;;;;13.25;8.40;;;23.20;99.90;;;;;;5010273;28;20096;-49
2022/11/28 02:28:35;;;;;;;15.27;8.38;;;23.20;99.90;;;;;;5008211;28;20113;-49
2022/11/28 02:31:38;;;;;;;12.82;7.85;;;23.20;99.90;;;;;;5006919;28;20034;-49
2022/11/28 02:34:30;;;;;;;14.32;8.57;;;23.20;99.90;;;;;;5009926;28;20037;-49
2022/11/28 02:37:08;;;;;;;14.65;8.07;;;23.20;99.90;;;;;;5003165;28;20517;-49
2022/11/28 02:39:53;;;;;;;13.75;8.13;;;23.20;99.90;;;;;;5013061;28;20026;-48
2022/11/28 02:42:27;;;;;;;15.02;8.55;;;23.20;99.90;;;;;;5012064;28;20033;-48
2022/11/28 02:45:12;;;;;;;13.00;8.57;;;23.20;99.90;;;;;;5012593;28;20018;-49
2022/11/28 02:47:47;;;;;;;13.75;7.85;;;23.20;99.90;;;;;;5013968;28;20026;-49
2022/11/28 02:50:23;;;;;;;12.43;6.97;;;23.10;99.90;;;;;;5013424;28;20540;-49
2022/11/28 02:52:59;;;;;;;14.73;7.35;;;23.10;99.90;;;;;;5013966;28;20374;-49
2022/11/28 02:55:26;;;;;;;11.85;7.25;;;23.10;99.90;;;;;;5013422;28;20029;-49
2022/11/28 02:57:53;;;;;;;12.00;7.70;;;23.10;99.90;;;;;;5013337;28;20101;-49
2022/11/28 03:00:36;;;;;;;11.30;7.00;;;23.20;99.90;;;;;;5061085;23;20493;-57
2022/11/28 03:03:01;;;;;;;9.48;6.18;;;23.10;99.90;;;;;;5050847;28;20028;-58
2022/11/28 03:05:49;;;;;;;13.00;7.15;;;23.10;99.90;;;;;;5051888;28;20361;-57
2022/11/28 03:08:18;;;;;;;10.93;6.35;;;23.10;99.90;;;;;;5044344;28;20071;-58
2022/11/28 03:10:48;;;;;;;10.52;6.32;;;23.10;99.90;;;;;;5055094;28;20033;-58
2022/11/28 03:13:43;;;;;;;9.40;6.32;;;23.10;99.90;;;;;;5054027;28;20021;-57
2022/11/28 03:16:26;;;;;;;8.73;5.47;;;23.10;99.90;;;;;;4998982;28;20058;-57
2022/11/28 03:19:00;;;;;;;9.98;6.25;;;23.10;99.90;;;;;;5053445;28;20017;-58
2022/11/28 03:21:39;;;;;;;8.30;5.35;;;23.10;99.90;;;;;;5053284;28;20348;-58
2022/11/28 03:24:24;;;;;;;7.68;4.70;;;23.10;99.90;;;;;;5053228;28;20029;-57
2022/11/28 03:27:28;;;;;;;9.57;5.30;;;23.10;99.90;;;;;;5053453;28;20032;-57
2022/11/28 03:29:59;;;;;;;6.57;4.40;;;23.10;99.90;;;;;;5053618;28;20381;-57
2022/11/28 03:32:29;;;;;;;8.05;4.68;;;23.00;99.90;;;;;;5054857;28;20028;-57
2022/11/28 03:35:19;;;;;;;8.43;4.65;;;23.00;99.90;;;;;;5054409;28;20021;-57
2022/11/28 03:37:53;;;;;;;9.75;4.97;;;23.00;99.90;;;;;;5047775;28;20040;-57
2022/11/28 03:40:26;;;;;;;7.65;4.72;;;23.00;99.90;;;;;;5055114;28;20427;-57
2022/11/28 03:43:03;;;;;;;7.75;4.22;;;23.00;99.90;;;;;;5055038;28;20035;-57
2022/11/28 03:45:35;;;;;;;13.57;4.55;;;22.90;99.90;;;;;;5054930;28;20028;-57
2022/11/28 03:48:07;;;;;;;5.72;3.70;;;23.00;99.90;;;;;;5055011;28;20404;-56
2022/11/28 03:50:40;;;;;;;5.80;4.25;;;22.90;99.90;;;;;;5053622;28;20031;-57
2022/11/28 03:53:12;;;;;;;5.18;3.55;;;22.90;99.90;;;;;;5054766;28;20499;-57
2022/11/28 03:55:54;;;;;;;7.50;3.95;;;22.90;99.90;;;;;;5053309;28;20025;-57
2022/11/28 03:58:22;;;;;;;6.25;3.75;;;22.90;99.90;;;;;;5054537;28;20025;-56
2022/11/28 04:00:57;;;;;;;6.03;3.72;;;22.90;99.90;;;;;;5055092;22;20046;-52
2022/11/28 04:03:31;;;;;;;5.60;3.72;;;22.90;99.90;;;;;;5034654;28;20500;-52
2022/11/28 04:06:11;;;;;;;5.65;3.75;;;22.90;99.90;;;;;;5034711;28;20022;-52
2022/11/28 04:08:51;;;;;;;6.38;3.40;;;22.90;99.90;;;;;;5034505;28;20030;-52
2022/11/28 04:11:24;;;;;;;4.60;3.13;;;22.80;99.90;;;;;;5034931;28;20037;-51
2022/11/28 04:14:23;;;;;;;6.10;3.25;;;22.80;99.90;;;;;;5034438;28;20134;-52
2022/11/28 04:17:01;;;;;;;4.45;3.10;;;22.80;99.90;;;;;;5034474;28;20029;-52
2022/11/28 04:19:34;;;;;;;9.45;3.20;;;22.80;99.90;;;;;;5034393;28;20026;-52
2022/11/28 04:22:06;;;;;;;4.38;2.90;;;22.80;99.90;;;;;;5034445;28;20056;-53
2022/11/28 04:24:44;;;;;;;4.45;3.13;;;22.80;99.90;;;;;;5034304;28;20044;-52
2022/11/28 04:27:15;;;;;;;3.97;2.75;;;22.80;99.90;;;;;;5034656;28;20022;-52
2022/11/28 04:29:48;;;;;;;4.00;2.65;;;22.80;99.90;;;;;;5034324;28;20017;-53
2022/11/28 04:32:17;;;;;;;3.70;2.42;;;22.70;99.90;;;;;;5034408;28;20064;-53
2022/11/28 04:34:46;;;;;;;4.32;3.05;;;22.70;99.90;;;;;;5034207;28;20354;-54
2022/11/28 04:37:14;;;;;;;7.88;2.95;;;22.70;99.90;;;;;;5032898;28;20033;-53
2022/11/28 04:39:43;;;;;;;4.53;2.70;;;22.70;99.90;;;;;;5032903;28;20109;-53
2022/11/28 04:42:18;;;;;;;6.43;3.33;;;22.70;99.90;;;;;;5034142;28;20499;-52
2022/11/28 04:44:50;;;;;;;4.63;2.78;;;22.70;99.90;;;;;;5033930;28;20437;-53
2022/11/28 04:47:17;;;;;;;6.25;3.13;;;22.70;99.90;;;;;;5034006;28;20100;-52
2022/11/28 04:49:42;;;;;;;3.88;2.80;;;22.70;99.90;;;;;;5033845;28;20504;-53
2022/11/28 04:52:29;;;;;;;7.32;3.45;;;22.70;99.90;;;;;;5033734;28;20061;-52
2022/11/28 04:55:09;;;;;;;3.58;2.53;;;22.70;99.90;;;;;;5033724;28;20026;-52
2022/11/28 04:57:47;;;;;;;4.05;2.80;;;22.60;99.90;;;;;;5033575;28;20485;-53
2022/11/28 05:00:18;;;;;;;5.88;3.10;;;22.60;99.90;;;;;;5034023;28;20092;-52
2022/11/28 05:02:48;;;;;;;5.50;3.17;;;22.60;99.90;;;;;;5032625;28;20029;-52
2022/11/28 05:05:20;;;;;;;6.43;3.60;;;22.60;99.90;;;;;;5033626;28;20061;-52
2022/11/28 05:07:47;;;;;;;3.85;3.05;;;22.60;99.90;;;;;;5033639;28;20072;-51
2022/11/28 05:10:15;;;;;;;4.37;3.17;;;22.60;99.90;;;;;;5033548;28;20599;-51
2022/11/28 05:12:41;;;;;;;;;;;22.60;99.90;;;;;;5032600;28;20048;-51
2022/11/28 05:15:07;;;;;;;4.93;2.67;;;22.60;99.90;;;;;;5033306;28;19905;-51
2022/11/28 05:17:33;;;;;;;6.07;3.42;;;22.60;99.90;;;;;;5033310;28;20017;-50
2022/11/28 05:19:59;;;;;;;3.92;3.15;;;22.60;99.90;;;;;;5033325;28;20084;-52
2022/11/28 05:22:24;;;;;;;5.35;3.20;;;22.60;99.90;;;;;;5033263;28;20126;-52
2022/11/28 05:24:50;;;;;;;4.50;3.10;;;22.50;99.90;;;;;;5033434;28;20065;-51
2022/11/28 05:27:16;;;;;;;4.22;3.30;;;22.50;99.90;;;;;;5033216;28;20416;-51
2022/11/28 05:29:43;;;;;;;4.28;3.17;;;22.50;99.90;;;;;;5033194;28;20366;-51
2022/11/28 05:32:12;;;;;;;4.80;3.10;;;22.50;99.90;;;;;;5032927;28;20026;-51
2022/11/28 05:34:38;;;;;;;5.10;3.65;;;22.50;99.90;;;;;;5032900;28;20021;-51
2022/11/28 05:37:04;;;;;;;5.05;3.30;;;22.50;99.90;;;;;;5032997;28;20021;-52
2022/11/28 05:39:30;;;;;;;5.45;3.50;;;22.50;99.90;;;;;;5032904;28;20022;-52
2022/11/28 05:41:57;;;;;;;5.10;3.58;;;22.50;99.90;;;;;;5031649;28;20021;-52
2022/11/28 05:44:23;;;;;;;5.07;3.25;;;22.50;99.90;;;;;;5032921;28;20017;-52
2022/11/28 05:46:49;;;;;;;6.35;3.75;;;22.50;99.90;;;;;;5033061;28;20022;-52
2022/11/28 05:49:15;;;;;;;4.25;3.20;;;22.50;99.90;;;;;;5032902;28;20048;-51
2022/11/28 05:51:40;;;;;;;6.70;4.10;;;22.40;99.90;;;;;;5032615;28;20117;-52
2022/11/28 05:54:06;;;;;;;5.88;4.20;;;22.40;99.90;;;;;;5031686;28;20465;-53
2022/11/28 05:56:32;;;;;;;6.38;3.97;;;22.50;99.90;;;;;;5032619;28;20038;-53
2022/11/28 05:58:58;;;;;;;5.93;4.20;;;22.40;99.90;;;;;;5032603;28;20025;-52
2022/11/28 06:01:27;;;;;;;5.18;3.83;;;22.40;99.90;;;;;;5032436;28;20547;-52
2022/11/28 06:03:58;;;;;;;4.88;3.92;;;22.40;99.90;;;;;;5032724;28;20033;-52
2022/11/28 06:06:29;;;;;;;6.78;4.60;;;22.40;99.90;;;;;;5032527;28;20540;-52
2022/11/28 06:08:55;;;;;;;5.40;3.97;;;22.40;99.90;;;;;;5032389;28;20033;-53
2022/11/28 06:11:22;;;;;;;6.07;3.30;;;22.40;99.90;;;;;;5032610;28;20037;-53
2022/11/28 06:13:49;;;;;;;6.18;4.32;;;22.40;99.90;;;;;;5031868;28;20101;-53
2022/11/28 06:16:17;;;;;;;6.43;4.50;;;22.40;99.90;;;;;;5032402;28;20025;-53
2022/11/28 06:18:44;;;;;;;5.28;3.85;;;22.40;99.90;;;;;;5032348;28;20020;-54
2022/11/28 06:21:11;;;;;;;7.38;4.03;;;22.40;99.90;;;;;;5032241;28;20025;-53
2022/11/28 06:23:37;;;;;;;;;;;22.40;99.90;;;;;;5032755;28;20098;-52
2022/11/28 06:26:05;;;;;;;6.88;4.20;;;22.30;99.90;;;;;;5032276;28;19936;-52
2022/11/28 06:28:31;;;;;;;5.15;4.13;;;22.30;99.90;;;;;;5032312;28;20021;-52
2022/11/28 06:30:57;;;;;;;8.23;4.57;;;22.40;99.90;;;;;;5032122;28;20042;-51
2022/11/28 06:33:23;;;;;;;6.13;3.90;;;22.30;99.90;;;;;;5032409;28;20075;-52
2022/11/28 06:35:49;;;;;;;6.43;4.40;;;22.30;99.90;;;;;;5032144;28;20033;-51
2022/11/28 06:38:14;;;;;;;6.60;4.72;;;22.30;99.90;;;;;;5032074;28;20029;-53
2022/11/28 06:40:40;;;;;;;6.13;4.05;;;22.30;99.90;;;;;;5032138;28;20022;-52
2022/11/28 06:43:06;;;;;;;5.60;4.10;;;22.30;99.90;;;;;;5032123;28;20030;-53
2022/11/28 06:45:35;;;;;;;6.55;3.80;;;22.30;99.90;;;;;;5032125;28;20025;-54
2022/11/28 06:48:01;;;;;;;5.72;4.05;;;22.30;99.90;;;;;;5031879;28;20026;-52
2022/11/28 06:50:27;;;;;;;6.72;4.53;;;22.30;99.90;;;;;;5031918;28;20040;-53
2022/11/28 06:52:56;;;;;;;6.65;4.80;;;22.30;99.90;;;;;;5032272;28;20041;-53
2022/11/28 06:55:22;;;;;;;6.10;4.35;;;22.30;99.90;;;;;;5032043;28;20036;-52
2022/11/28 06:57:47;;;;;;;5.45;4.30;;;22.30;99.90;;;;;;5031994;28;20021;-53
2022/11/28 07:00:13;;;;;;;6.45;4.03;;;22.20;99.90;;;;;;5031419;28;20547;-52
2022/11/28 07:02:39;;;;;;;6.45;4.13;;;22.20;99.90;;;;;;5031808;28;20366;-52
2022/11/28 07:05:05;;;;;;;7.75;4.30;;;22.20;99.90;;;;;;5031889;28;20027;-52
2022/11/28 07:07:31;;;;;;;8.10;4.75;;;22.20;99.90;;;;;;5031702;28;20029;-53
2022/11/28 07:09:57;;;;;;;10.75;5.15;;;22.20;99.90;;;;;;5031853;28;20121;-53
2022/11/28 07:12:23;;;;;;;5.18;4.63;;;22.20;99.90;;;;;;5032013;28;20547;-52
2022/11/28 07:14:48;;;;;;;6.18;4.50;;;22.20;99.90;;;;;;5031891;28;20025;-53
2022/11/28 07:17:14;;;;;;;5.85;4.22;;;22.20;99.90;;;;;;5031725;28;20030;-53
2022/11/28 07:19:40;;;;;;;6.00;4.80;;;22.20;99.90;;;;;;5031698;28;20021;-53
2022/11/28 07:22:06;;;;;;;5.75;4.22;;;22.20;99.90;;;;;;5031659;28;20493;-52
2022/11/28 07:24:32;;;;;;;8.13;5.07;;;22.20;99.90;;;;;;5033127;28;20033;-52
2022/11/28 07:26:57;;;;;;;6.97;4.00;;;22.20;99.90;;;;;;5035587;28;20428;-53
2022/11/28 07:29:23;;;;;;;8.20;4.30;;;22.20;99.90;;;;;;5035592;28;20411;-53
2022/11/28 07:31:49;;;;;;;6.90;4.28;;;22.20;99.90;;;;;;5035027;28;20132;-53
2022/11/28 07:34:15;;;;;;;6.60;4.88;;;22.20;99.90;;;;;;5035104;28;20458;-53
2022/11/28 07:36:41;;;;;;;7.72;4.80;;;22.20;99.90;;;;;;5035235;28;20101;-53
2022/11/28 07:39:07;;;;;;;7.90;5.05;;;22.20;99.90;;;;;;5035184;28;20104;-53
2022/11/28 07:41:34;;;;;;;7.68;4.63;;;22.30;99.90;;;;;;5035093;28;20025;-53
2022/11/28 07:44:01;;;;;;;6.72;4.72;;;22.30;99.90;;;;;;5035107;28;20104;-53
2022/11/28 07:46:29;;;;;;;9.43;4.85;;;22.30;99.90;;;;;;5034967;28;20131;-53
2022/11/28 07:48:56;;;;;;;6.57;4.95;;;22.30;99.90;;;;;;5035278;28;20056;-53
2022/11/28 07:51:25;;;;;;;6.75;4.65;;;22.40;99.90;;;;;;5034925;28;20109;-53
2022/11/28 07:53:50;;;;;;;6.95;5.03;;;22.40;99.90;;;;;;5034806;28;20046;-53
2022/11/28 07:56:22;;;;;;;7.68;4.80;;;22.40;99.90;;;;;;5034639;28;20111;-53
2022/11/28 07:58:48;;;;;;;6.93;4.63;;;22.40;99.90;;;;;;5034714;28;20053;-53
2022/11/28 08:01:26;;;;;;;8.30;5.25;;;22.40;99.90;;;;;;5034582;28;20136;-53
2022/11/28 08:03:53;;;;;;;6.15;4.38;;;22.50;99.90;;;;;;5034564;28;20076;-53
2022/11/28 08:06:21;;;;;;;8.25;5.13;;;22.50;99.90;;;;;;5034582;28;20025;-53
2022/11/28 08:08:48;;;;;;;9.27;5.03;;;22.50;99.90;;;;;;5034537;28;20507;-53
2022/11/28 08:11:15;;;;;;;7.40;4.80;;;22.60;99.90;;;;;;5034524;28;20116;-53
2022/11/28 08:13:41;;;;;;;6.13;4.30;;;22.60;99.90;;;;;;5034525;28;20020;-53
2022/11/28 08:16:19;;;;;;;6.72;4.53;;;22.60;99.90;;;;;;5034347;28;20029;-53
2022/11/28 08:18:45;;;;;;;;;;;22.70;99.90;;;;;;5034683;28;20049;-53
2022/11/28 08:21:13;;;;;;;7.63;4.85;;;22.70;99.90;;;;;;5034150;28;19912;-53
2022/11/28 08:23:39;;;;;;;6.82;4.40;;;22.70;99.90;;;;;;5034294;28;20063;-54
2022/11/28 08:26:08;;;;;;;7.25;4.95;;;22.70;99.90;;;;;;5034322;28;20060;-54
2022/11/28 08:28:34;;;;;;;7.40;4.47;;;22.80;99.90;;;;;;5033062;28;20026;-54
2022/11/28 08:31:08;;;;;;;7.57;5.40;;;22.80;99.90;;;;;;5033093;28;20037;-53
2022/11/28 08:33:34;;;;;;;7.60;5.22;;;22.80;99.90;;;;;;5034175;28;20053;-54
2022/11/28 08:36:02;;;;;;;11.05;5.35;;;22.80;99.90;;;;;;5033705;28;20068;-53
2022/11/28 08:38:27;;;;;;;8.77;5.47;;;22.90;99.90;;;;;;5034073;28;20569;-51
2022/11/28 08:41:02;;;;;;;10.15;5.28;;;22.90;99.90;;;;;;5032847;28;20149;-53
2022/11/28 08:43:28;;;;;;;7.20;4.88;;;22.90;99.90;;;;;;5034011;28;20021;-54
2022/11/28 08:45:54;;;;;;;8.48;5.22;;;22.90;99.90;;;;;;5033793;28;20025;-54
2022/11/28 08:48:20;;;;;;;9.82;6.10;;;23.00;99.90;;;;;;5033704;28;20421;-53
2022/11/28 08:50:47;;;;;;;8.90;6.00;;;23.00;99.90;;;;;;5033640;28;20056;-54
2022/11/28 08:53:12;;;;;;;11.25;6.30;;;23.00;99.90;;;;;;5033682;28;20021;-54
2022/11/28 08:55:41;;;;;;;9.98;7.72;;;23.10;99.90;;;;;;5033714;28;20032;-54
2022/11/28 08:58:07;;;;;;;12.00;7.22;;;23.10;99.90;;;;;;5033548;28;20018;-53
2022/11/28 09:00:32;;;;;;;11.63;7.35;;;23.10;99.90;;;;;;5032066;28;20049;-54
2022/11/28 09:02:58;;;;;;;11.60;7.85;;;23.20;99.90;;;;;;5033855;28;20078;-53
2022/11/28 09:05:24;;;;;;;12.70;8.07;;;23.20;99.90;;;;;;5033599;28;20049;-53
2022/11/28 09:07:52;;;;;;;14.55;8.45;;;23.20;99.90;;;;;;5033357;28;20374;-52
2022/11/28 09:10:18;;;;;;;13.77;8.50;;;23.20;99.90;;;;;;5033510;28;20025;-53
2022/11/28 09:12:44;;;;;;;11.98;8.30;;;23.30;99.90;;;;;;5033309;28;20036;-53
2022/11/28 09:15:10;;;;;;;13.50;8.02;;;23.30;99.90;;;;;;5033481;28;20366;-54
2022/11/28 09:17:36;;;;;;;15.77;8.05;;;23.30;99.90;;;;;;5032215;28;20033;-55
2022/11/28 09:20:03;;;;;;;15.27;8.88;;;23.40;99.90;;;;;;5033266;28;20032;-55
2022/11/28 09:22:29;;;;;;;15.27;8.70;;;23.40;99.90;;;;;;5032084;28;20075;-55
2022/11/28 09:24:54;;;;;;;11.35;8.10;;;23.40;99.90;;;;;;5033148;28;20021;-53
2022/11/28 09:27:20;;;;;;;16.13;8.73;;;23.50;99.90;;;;;;5033055;28;20480;-53
2022/11/28 09:29:46;;;;;;;13.98;9.30;;;23.50;99.90;;;;;;5033038;28;20022;-55
2022/11/28 09:32:11;;;;;;;12.82;8.55;;;23.50;99.90;;;;;;5032855;28;20087;-54
2022/11/28 09:34:37;;;;;;;13.23;9.65;;;23.60;99.90;;;;;;5032934;28;20026;-53
2022/11/28 09:37:03;;;;;;;16.90;11.13;;;23.60;99.90;;;;;;5033222;28;20083;-54
2022/11/28 09:39:29;;;;;;;16.45;11.18;;;23.60;99.90;;;;;;5033034;28;20493;-54
2022/11/28 09:42:05;;;;;;;14.60;10.13;;;23.70;99.90;;;;;;5032860;28;20091;-52
2022/11/28 09:44:54;;;;;;;17.02;10.00;;;23.70;99.90;;;;;;5031516;28;20025;-54
2022/11/28 09:47:33;;;;;;;16.15;11.13;;;23.70;99.90;;;;;;5030997;28;20018;-53
2022/11/28 09:50:18;;;;;;;16.15;11.43;;;23.80;99.90;;;;;;5032664;28;20358;-54
2022/11/28 09:53:15;;;;;;;14.57;10.48;;;23.80;99.90;;;;;;5032723;28;20412;-53
2022/11/28 09:55:48;;;;;;;16.02;10.05;;;23.90;99.90;;;;;;5032549;28;20195;-54
2022/11/28 09:58:42;;;;;;;18.00;11.15;;;23.90;99.90;;;;;;5032676;28;20033;-53
2022/11/28 10:01:20;;;;;;;15.30;10.90;;;23.90;99.90;;;;;;5030975;28;20079;-54
2022/11/28 10:04:06;;;;;;;18.17;11.52;;;24.00;99.90;;;;;;5032602;28;20052;-54
2022/11/28 10:06:57;;;;;;;15.80;10.70;;;24.10;99.90;;;;;;5032771;28;20446;-55
2022/11/28 10:09:45;;;;;;;16.95;11.68;;;24.10;99.90;;;;;;5032439;28;20384;-54
2022/11/28 10:12:40;;;;;;;17.98;11.23;;;24.20;99.90;;;;;;5032166;28;20029;-55
2022/11/28 10:15:19;;;;;;;16.05;11.73;;;24.30;99.90;;;;;;5017310;28;20041;-53
2022/11/28 10:17:56;;;;;;;16.77;12.40;;;24.30;99.90;;;;;;5032346;28;20048;-54
2022/11/28 10:20:29;;;;;;;17.02;12.30;;;24.30;99.90;;;;;;5032204;28;20048;-53
2022/11/28 10:22:57;;;;;;;17.17;12.43;;;24.40;99.90;;;;;;5032192;28;20109;-54
2022/11/28 10:25:32;;;;;;;21.30;14.35;;;24.50;99.90;;;;;;5032098;28;20032;-54
2022/11/28 10:27:58;;;;;;;21.38;14.95;;;24.50;99.90;;;;;;5032183;28;20037;-54
2022/11/28 10:30:35;;;;;;;21.10;14.40;;;24.60;99.90;;;;;;5032053;28;20033;-53
2022/11/28 10:33:17;;;;;;;23.23;14.57;;;24.60;99.90;;;;;;5032137;28;20539;-54
2022/11/28 10:35:56;;;;;;;19.88;14.60;;;24.70;99.90;;;;;;5032059;28;20044;-54
2022/11/28 10:38:26;;;;;;;21.45;15.15;;;24.70;99.90;;;;;;5031956;28;20045;-53
2022/11/28 10:41:21;;;;;;;24.10;16.15;;;24.80;99.90;;;;;;5031993;28;20021;-55
2022/11/28 10:43:58;;;;;;;19.70;15.18;;;24.80;99.90;;;;;;5029735;28;20042;-54
2022/11/28 10:46:48;;;;;;;17.50;13.13;;;24.80;99.90;;;;;;5030527;28;20026;-53
2022/11/28 10:49:45;;;;;;;17.55;13.60;;;24.90;99.90;;;;;;5032071;28;20021;-54
2022/11/28 10:52:21;;;;;;;19.35;13.65;;;25.00;99.90;;;;;;5031184;28;20068;-53
2022/11/28 10:54:56;;;;;;;17.65;13.52;;;25.00;99.90;;;;;;5053132;28;20021;-53
2022/11/28 10:57:38;;;;;;;22.58;13.82;;;25.10;99.90;;;;;;5028891;28;20022;-53
2022/11/28 11:00:13;;;;;;;20.02;14.02;;;25.10;99.90;;;;;;5031186;28;20037;-57
2022/11/28 11:03:01;;;;;;;20.75;13.25;;;25.10;99.90;;;;;;5035049;28;20421;-51
2022/11/28 11:05:32;;;;;;;17.50;11.90;;;25.20;99.90;;;;;;5032642;28;20014;-53
2022/11/28 11:08:01;;;;;;;17.50;12.20;;;25.20;99.90;;;;;;5034206;28;20022;-53
2022/11/28 11:10:41;;;;;;;16.13;11.50;;;25.30;99.90;;;;;;5035386;28;20065;-54
2022/11/28 11:13:22;;;;;;;13.68;11.77;;;25.30;99.90;;;;;;5040932;28;20476;-52
2022/11/28 11:15:59;;;;;;;15.45;10.52;;;25.40;99.90;;;;;;5043861;28;20033;-53
2022/11/28 11:18:29;;;;;;;16.00;10.18;;;25.40;99.90;;;;;;5055242;28;20021;-54
2022/11/28 11:21:07;;;;;;;17.88;10.77;;;25.40;99.90;;;;;;5049006;28;20040;-53
2022/11/28 11:23:32;;;;;;;15.40;10.85;;;25.40;99.90;;;;;;5042081;28;20493;-53
2022/11/28 11:25:59;;;;;;;17.83;9.73;;;25.50;99.90;;;;;;5036500;28;20071;-54
2022/11/28 11:28:24;;;;;;;16.25;10.32;;;25.50;99.90;;;;;;5035155;28;20049;-52
2022/11/28 11:30:58;;;;;;;23.67;6.18;;;25.50;99.90;;;;;;5034799;28;20072;-53
2022/11/28 11:33:29;;;;;;;28.70;5.35;;;25.50;99.90;;;;;;5034953;28;20152;-51
2022/11/28 11:35:54;;;;;;;25.17;4.00;;;25.50;99.90;;;;;;5033681;28;20090;-57
2022/11/28 11:38:20;;;;;;;16.23;2.88;;;25.50;99.90;;;;;;5034317;28;20525;-49
2022/11/28 11:40:47;;;;;;;23.27;2.67;;;25.40;99.90;;;;;;5033623;28;20477;-53
2022/11/28 11:43:34;;;;;;;18.23;4.00;;;25.40;99.90;;;;;;5034383;28;20045;-53
2022/11/28 11:46:13;;;;;;;;;;;25.30;99.90;;;;;;5033753;28;20081;-53
2022/11/28 11:48:43;;;;;;;18.83;7.03;;;25.30;99.90;;;;;;5033469;28;19905;-55
2022/11/28 11:51:25;;;;;;;19.48;7.05;;;25.40;99.90;;;;;;5031857;28;20032;-55
2022/11/28 11:54:01;;;;;;;14.38;6.00;;;25.40;99.90;;;;;;5032184;28;20063;-51
2022/11/28 11:56:30;;;;;;;16.63;5.85;;;25.40;99.90;;;;;;5028710;28;20024;-51
2022/11/28 11:59:00;;;;;;;19.38;5.72;;;25.40;99.90;;;;;;5033984;28;20056;-52
2022/11/28 12:01:28;;;;;;;17.40;4.95;;;25.40;99.90;;;;;;5034512;28;20041;-49
2022/11/28 12:04:01;;;;;;;16.95;5.38;;;25.50;99.90;;;;;;5032926;28;20481;-54
2022/11/28 12:06:33;;;;;;;14.65;5.28;;;25.50;99.90;;;;;;5032190;28;20038;-54
2022/11/28 12:09:21;;;;;;;11.13;4.15;;;25.50;99.90;;;;;;5033009;28;20030;-53
2022/11/28 12:11:55;;;;;;;10.85;4.18;;;25.50;99.90;;;;;;5033376;28;20033;-53
2022/11/28 12:14:30;;;;;;;24.90;5.18;;;25.60;99.90;;;;;;5034408;28;20021;-53
2022/11/28 12:17:23;;;;;;;10.50;4.13;;;25.60;99.90;;;;;;5033355;28;20025;-54
2022/11/28 12:20:01;;;;;;;13.98;5.00;;;25.70;99.90;;;;;;5032486;28;20071;-52
2022/11/28 12:23:03;;;;;;;12.32;5.82;;;25.70;99.90;;;;;;5032043;28;20030;-54
2022/11/28 12:26:14;;;;;;;16.75;4.97;;;25.70;99.90;;;;;;5032891;28;20369;-54
2022/11/28 12:28:57;;;;;;;12.90;5.00;;;25.80;99.90;;;;;;4962857;28;20026;-51
2022/11/28 12:32:20;;;;;;;12.13;4.47;;;25.80;99.90;;;;;;4956298;28;20093;-55
2022/11/28 12:34:57;;;;;;;10.57;4.85;;;25.80;99.90;;;;;;4987805;28;20025;-56
2022/11/28 12:37:48;;;;;;;8.63;4.30;;;25.80;99.90;;;;;;5030794;28;20032;-53
2022/11/28 12:40:23;;;;;;;10.55;4.35;;;25.90;99.90;;;;;;5013826;28;20022;-54
2022/11/28 12:43:29;;;;;;;8.07;4.00;;;25.90;99.90;;;;;;5029215;28;20036;-54
2022/11/28 12:46:21;;;;;;;8.85;4.55;;;25.90;99.90;;;;;;5030439;28;20064;-54
2022/11/28 12:49:02;;;;;;;8.98;4.68;;;26.00;99.90;;;;;;5029817;28;20078;-54
2022/11/28 12:51:31;;;;;;;11.57;5.15;;;26.00;99.90;;;;;;5029385;28;20477;-53
2022/11/28 12:54:34;;;;;;;13.98;4.50;;;26.00;99.90;;;;;;5030519;28;20036;-53
2022/11/28 12:57:17;;;;;;;14.52;4.57;;;26.10;99.90;;;;;;5031852;28;20109;-53
2022/11/28 12:59:58;;;;;;;8.30;4.57;;;26.10;99.90;;;;;;5031157;28;20073;-53
2022/11/28 13:02:49;;;;;;;17.58;5.53;;;26.10;99.90;;;;;;5034300;28;20021;-54
2022/11/28 13:05:40;;;;;;;14.95;5.40;;;26.10;99.90;;;;;;5031830;28;20033;-51
2022/11/28 13:08:33;;;;;;;15.05;5.50;;;26.10;99.90;;;;;;5031162;28;20039;-51